RJOMRJFO

Guest
Details From RJOM - MATSUYAMA
To RJFO - OITA
Flight Number -
Tags generated
Created
Modified
Stats Distance 54 nm / 100 km
Max Altitude 6,000 ft / 1,829 m
Waypoints 3
Social Downloads 3
Likes 0
Share VATSIM

Download

Looking for another format? Having issues loading an existing format? Contact us
Advertisement - Login to hide

Notes

Basic altitude profile: - Ascent Rate: 2500ft/min - Ascent Speed: 250kts - Cruise Altitude: 35000ft - Cruise Speed: 420kts - Descent Rate: 1500ft/min - Descent Speed: 250kts Options: - Use NATs: yes - Use PACOTS: yes - Use low airways: yes - Use high airways: yes

Route

RJOM DRAGN RJFO

ID Type Via Altitude Latitude Longitude Leg Dist Tot Dist Heading (true) Name
O RJOM APT - 0 ft / 0 m 33.82726˚ 132.69963˚ - 0 nm - MATSUYAMA
DRAGN FIX - 6,000 ft / 1,829 m 33.56467˚ 132.28995˚ 25 nm 25 nm 233° / 232° -
O RJFO APT - 0 ft / 0 m 33.47950˚ 131.73712˚ 28 nm 53 nm 260° / 259° OITA

Altitude Profile

Advertisement - Login to hide

RJOM

Details ICAO RJOM (MYJ)
Name MATSUYAMA
Region Japan
Timezone Asia/Tokyo (UTC+9.0)
Stats Elevation 25 ft / 8 m (AMSL)
Location 33.827257° 132.699631°
Runways 1
Magnetic Variation 7.514° W

METAR

RJOM 142110Z 12006KT 9999 FEW020 03/M05 Q1025 RMK 1CU020 A3029

Decode

TAF

TAF RJOM 141706Z 1418/1600 12008KT 9999 FEW025 SCT060 BECMG 1501/1503 32005KT BECMG 1509/1512 12007KT BECMG 1518/1521 28012KT

Decode

Departure Runways

ID Width Length Bearing (true) Bearing (mag) Surface Threshold Offset Overrun Length
14 150 ft / 46 m 8,203 ft / 2,500 m 130.67° 138.18° Asphalt 0 ft / 0 m 206 ft / 63 m
32 150 ft / 46 m 8,203 ft / 2,500 m 310.68° 318.19° Asphalt 0 ft / 0 m 195 ft / 59 m

RJFO

Details ICAO RJFO (OIT)
Name OITA
Region Japan
Timezone Asia/Tokyo (UTC+9.0)
Stats Elevation 19 ft / 6 m (AMSL)
Location 33.479503° 131.737125°
Runways 1
Magnetic Variation 7.422° W

METAR

Not found

TAF

TAF RJFO 141707Z 1418/1600 04007KT 9999 FEW030 BKN040 BECMG 1509/1512 26005KT BECMG 1518/1521 30005KT

Decode

Destination Runways

ID Width Length Bearing (true) Bearing (mag) Surface Threshold Offset Overrun Length
01 150 ft / 46 m 9,869 ft / 3,008 m 0.42° 7.84° Asphalt 0 ft / 0 m 200 ft / 61 m
19 150 ft / 46 m 9,869 ft / 3,008 m 180.42° 187.84° Asphalt 0 ft / 0 m 200 ft / 61 m

Approach Navaids

Runway Type Ident Frequency Range Bearing (true) Bearing (mag) Slope Elevation
01 Localiser ITF 111.50 MHz 18 nm / 33 km 0.42° 7.84° - 19 ft / 6 m (AMSL)
01 Glidescope ITF 111.50 MHz 10 nm / 19 km 0.42° 7.84° 3.00° 54 ft / 16 m (AMSL)
01 DME ITF 111.50 MHz 18 nm / 33 km - - - 38 ft / 12 m (AMSL)